Time;durP1;ratioP1;P1;durP2;ratioP2;P2;SDS_P1;SDS_P2;PMS_P1;PMS_P2;Temp;Humidity;BMP_temperature;BMP_pressure;BME280_temperature;BME280_humidity;BME280_pressure;Samples;Min_cycle;Max_cycle;Signal;HPM_P1;HPM_P2
2023/12/02 04:01:25;;;;;;;4.25;3.85;;;23.10;23.80;;;;;;5654052;23;44752;-87
2023/12/02 04:03:54;;;;;;;4.20;3.80;;;23.10;23.80;;;;;;4962340;28;44831;-88
2023/12/02 04:06:20;;;;;;;4.47;4.00;;;23.00;23.80;;;;;;4954465;28;45468;-86
2023/12/02 04:08:46;;;;;;;4.13;3.72;;;23.10;23.80;;;;;;4947898;28;45773;-86
2023/12/02 04:11:11;;;;;;;4.50;4.10;;;23.00;23.80;;;;;;4978706;28;45131;-86
2023/12/02 04:13:38;;;;;;;3.95;3.55;;;23.10;23.80;;;;;;4976308;28;45300;-86
2023/12/02 04:16:05;;;;;;;4.20;3.80;;;23.00;23.80;;;;;;4956779;28;46339;-90
2023/12/02 04:27:46;;;;;;;4.70;4.20;;;23.00;23.80;;;;;;4784019;29;45261;-89
2023/12/02 04:43:03;;;;;;;3.83;3.45;;;22.90;23.80;;;;;;4715399;30;45053;-90
2023/12/02 04:54:53;;;;;;;4.20;3.80;;;22.90;23.80;;;;;;4621944;30;44674;-86
2023/12/02 05:06:50;;;;;;;4.50;4.10;;;22.80;23.80;;;;;;4964156;28;45457;-90
2023/12/02 05:18:32;;;;;;;4.10;3.70;;;22.80;23.90;;;;;;4887569;28;44983;-86
2023/12/02 05:26:18;;;;;;;4.05;3.65;;;22.80;23.80;;;;;;4881734;28;45299;-88
2023/12/02 05:33:58;;;;;;;4.13;3.60;;;22.70;23.80;;;;;;4914686;28;45048;-89
2023/12/02 05:37:55;;;;;;;4.32;3.92;;;22.70;23.80;;;;;;4903798;28;45307;-88
2023/12/02 05:57:32;;;;;;;4.38;3.97;;;22.70;23.80;;;;;;4802089;29;45273;-86
2023/12/02 06:36:50;;;;;;;4.63;4.18;;;22.50;23.90;;;;;;4961623;28;45305;-86
2023/12/02 06:40:59;;;;;;;5.20;4.40;;;22.50;23.90;;;;;;4920522;28;45260;-88
2023/12/02 06:44:19;;;;;;;4.30;3.90;;;22.50;23.90;;;;;;4888768;28;45660;-89
2023/12/02 06:48:27;;;;;;;4.90;4.40;;;22.40;23.90;;;;;;4894337;28;46162;-86
2023/12/02 06:52:46;;;;;;;4.85;4.40;;;22.40;23.90;;;;;;4877959;28;45308;-86
2023/12/02 06:56:21;;;;;;;4.57;4.17;;;22.40;23.90;;;;;;4850212;28;45231;-88
2023/12/02 07:00:18;;;;;;;4.97;4.47;;;22.40;23.90;;;;;;4895876;28;45099;-88
2023/12/02 07:07:04;;;;;;;5.23;4.73;;;22.30;23.80;;;;;;4844139;29;45227;-88
2023/12/02 07:10:46;;;;;;;5.10;4.60;;;22.30;23.80;;;;;;4870994;29;44861;-86
2023/12/02 07:14:47;;;;;;;5.28;4.20;;;22.30;23.80;;;;;;4797281;29;45012;-89
2023/12/02 07:18:13;;;;;;;5.60;4.97;;;22.30;23.90;;;;;;4829958;29;44940;-86
2023/12/02 07:21:45;;;;;;;5.43;4.82;;;22.30;23.90;;;;;;4923298;28;45374;-92
2023/12/02 07:25:57;;;;;;;5.03;4.53;;;22.30;23.90;;;;;;4921734;28;44700;-88
2023/12/02 08:04:07;;;;;;;5.95;5.40;;;22.10;23.90;;;;;;5062483;23;46000;-83
2023/12/02 08:06:35;;;;;;;5.50;5.00;;;22.10;23.90;;;;;;4969737;28;45485;-83
2023/12/02 08:09:01;;;;;;;5.38;4.88;;;22.10;23.90;;;;;;4959777;28;45762;-84
2023/12/02 08:11:28;;;;;;;5.32;4.82;;;22.10;23.90;;;;;;4972630;28;45187;-79
2023/12/02 08:13:53;;;;;;;5.63;5.05;;;22.10;23.90;;;;;;4975656;28;45414;-87
2023/12/02 08:16:19;;;;;;;5.90;5.30;;;22.10;23.90;;;;;;4936881;28;45813;-81
2023/12/02 08:18:46;;;;;;;5.33;4.83;;;22.10;23.90;;;;;;4958841;28;44916;-84
2023/12/02 08:21:12;;;;;;;5.85;5.30;;;22.10;23.90;;;;;;4965485;28;45762;-82
2023/12/02 08:23:38;;;;;;;5.60;5.10;;;22.10;23.90;;;;;;4956364;28;46729;-84
2023/12/02 08:26:05;;;;;;;5.83;5.23;;;22.00;24.00;;;;;;4954528;28;44916;-85
2023/12/02 08:28:31;;;;;;;6.00;5.40;;;22.00;24.00;;;;;;4960053;28;45276;-84
2023/12/02 08:30:57;;;;;;;6.55;5.85;;;22.00;24.10;;;;;;4951157;28;45722;-81
2023/12/02 08:33:23;;;;;;;6.23;5.63;;;22.00;24.10;;;;;;4942809;28;45590;-82
2023/12/02 08:35:48;;;;;;;6.25;5.65;;;22.00;24.00;;;;;;4937990;28;44920;-84
2023/12/02 08:38:14;;;;;;;6.95;6.25;;;21.90;24.00;;;;;;4947036;28;45041;-83
2023/12/02 08:40:39;;;;;;;7.00;6.30;;;21.90;23.90;;;;;;4923009;28;46123;-87
2023/12/02 08:43:05;;;;;;;7.20;6.50;;;22.00;24.00;;;;;;4953180;28;45224;-86
2023/12/02 08:45:32;;;;;;;6.80;6.10;;;21.90;23.90;;;;;;4921591;28;45195;-81
2023/12/02 08:47:58;;;;;;;7.40;6.57;;;21.90;23.90;;;;;;4967964;28;45571;-84
2023/12/02 08:50:23;;;;;;;6.23;5.63;;;21.90;24.00;;;;;;4939291;28;45982;-81
2023/12/02 08:52:50;;;;;;;6.60;5.90;;;21.80;23.90;;;;;;4944912;28;45105;-83
2023/12/02 08:55:15;;;;;;;6.80;6.10;;;21.90;23.90;;;;;;4956160;28;45203;-81
2023/12/02 08:57:42;;;;;;;6.30;5.63;;;21.80;23.90;;;;;;4955969;28;45088;-86
2023/12/02 09:00:09;;;;;;;6.03;5.03;;;21.90;23.90;;;;;;4970268;28;46627;-83
2023/12/02 09:02:35;;;;;;;5.75;5.25;;;21.90;23.90;;;;;;4937013;28;45227;-85
2023/12/02 09:05:02;;;;;;;6.10;5.50;;;21.90;24.00;;;;;;4958077;28;45045;-82
2023/12/02 09:07:28;;;;;;;5.68;5.07;;;21.80;23.90;;;;;;4939299;28;45031;-84
2023/12/02 09:09:54;;;;;;;6.10;5.50;;;21.90;23.90;;;;;;4965454;28;45571;-83
2023/12/02 09:12:21;;;;;;;6.22;5.32;;;21.80;23.90;;;;;;4966237;28;45443;-81
2023/12/02 09:14:46;;;;;;;6.45;5.47;;;21.80;23.90;;;;;;4971405;28;44827;-81
2023/12/02 09:17:55;;;;;;;6.03;5.43;;;21.80;23.90;;;;;;4950608;28;45925;-82
2023/12/02 09:20:46;;;;;;;6.07;5.10;;;21.80;23.90;;;;;;4946125;28;46237;-81
2023/12/02 09:23:13;;;;;;;6.15;5.55;;;21.80;23.90;;;;;;4953257;28;45315;-82
2023/12/02 09:25:40;;;;;;;5.80;5.17;;;21.90;23.90;;;;;;4939983;28;45809;-85
2023/12/02 09:28:05;;;;;;;5.50;4.88;;;21.90;23.90;;;;;;4951209;28;44825;-83
2023/12/02 09:30:35;;;;;;;6.10;5.30;;;21.80;23.80;;;;;;4947531;28;46556;-81
2023/12/02 09:33:04;;;;;;;6.07;5.43;;;21.90;24.40;;;;;;4927003;28;44896;-84
2023/12/02 09:35:30;;;;;;;5.50;4.90;;;21.90;23.90;;;;;;4944886;28;45558;-88
2023/12/02 09:37:56;;;;;;;5.93;5.18;;;21.90;23.90;;;;;;4953416;28;46056;-87
2023/12/02 09:40:25;;;;;;;5.10;4.60;;;21.90;23.80;;;;;;4954070;28;45570;-82
2023/12/02 09:43:27;;;;;;;5.32;4.72;;;21.90;23.80;;;;;;4970564;28;44778;-83
2023/12/02 09:45:59;;;;;;;5.72;4.57;;;21.90;23.90;;;;;;4933313;28;45139;-83
2023/12/02 09:48:27;;;;;;;5.13;4.57;;;21.90;23.80;;;;;;4973440;28;45111;-85
2023/12/02 09:51:09;;;;;;;5.65;4.47;;;22.00;23.80;;;;;;4949260;28;45440;-81
2023/12/02 09:53:57;;;;;;;4.85;4.35;;;21.90;23.80;;;;;;4955530;28;44918;-81
2023/12/02 09:56:25;;;;;;;4.95;4.45;;;21.90;23.80;;;;;;4951911;28;44907;-89
2023/12/02 09:59:15;;;;;;;5.03;4.05;;;22.00;23.80;;;;;;4938829;28;44851;-81
2023/12/02 10:01:42;;;;;;;5.00;4.25;;;22.00;23.80;;;;;;4910472;28;46870;-85
2023/12/02 10:04:46;;;;;;;4.68;4.05;;;22.00;23.80;;;;;;4953151;28;45272;-81
2023/12/02 10:07:59;;;;;;;4.60;3.95;;;22.00;23.70;;;;;;4965772;28;45741;-83
2023/12/02 10:10:28;;;;;;;4.45;4.05;;;22.00;23.70;;;;;;4922514;28;46575;-84
2023/12/02 10:12:54;;;;;;;4.95;4.30;;;22.00;23.70;;;;;;4939599;28;46541;-81
2023/12/02 10:15:19;;;;;;;4.18;3.78;;;22.00;23.70;;;;;;4947376;28;44690;-82
2023/12/02 10:17:50;;;;;;;4.50;3.85;;;22.10;23.70;;;;;;4939866;28;45309;-87
2023/12/02 10:20:16;;;;;;;4.40;3.80;;;22.10;23.70;;;;;;4944775;28;45233;-83
2023/12/02 10:22:48;;;;;;;3.92;3.53;;;22.10;23.60;;;;;;4927265;28;46017;-81
2023/12/02 10:25:42;;;;;;;4.47;3.75;;;22.10;23.60;;;;;;4954734;28;45181;-82
2023/12/02 10:28:28;;;;;;;3.83;3.40;;;22.20;23.70;;;;;;4948595;28;45544;-84
2023/12/02 10:30:56;;;;;;;3.75;3.35;;;22.20;23.60;;;;;;4932722;28;44881;-82
2023/12/02 10:33:46;;;;;;;4.35;3.55;;;22.20;23.60;;;;;;4923003;28;46154;-83
2023/12/02 10:36:12;;;;;;;4.63;3.73;;;22.20;23.60;;;;;;4952139;28;45435;-82
2023/12/02 10:38:43;;;;;;;3.67;3.20;;;22.20;23.60;;;;;;4973293;28;45338;-81
2023/12/02 10:41:20;;;;;;;3.92;3.50;;;22.20;23.60;;;;;;4940232;28;46107;-85
2023/12/02 10:43:46;;;;;;;3.60;3.10;;;22.30;23.60;;;;;;4954536;28;45204;-82
2023/12/02 10:46:12;;;;;;;3.50;3.20;;;22.30;23.50;;;;;;4951072;28;45838;-81
2023/12/02 10:48:39;;;;;;;3.88;2.90;;;22.30;23.50;;;;;;4941163;28;45223;-82
2023/12/02 10:51:06;;;;;;;3.60;3.07;;;22.30;23.60;;;;;;4940362;28;45473;-84
2023/12/02 10:53:33;;;;;;;3.85;3.20;;;22.40;23.50;;;;;;4923958;28;46332;-84
2023/12/02 10:56:00;;;;;;;3.25;2.90;;;22.40;23.50;;;;;;4948701;28;45568;-82
2023/12/02 10:58:26;;;;;;;3.80;3.20;;;22.40;23.50;;;;;;4956888;28;46000;-82
2023/12/02 11:00:56;;;;;;;3.85;3.08;;;22.40;23.40;;;;;;4936038;28;45863;-84
2023/12/02 11:03:28;;;;;;;4.82;3.40;;;22.50;23.40;;;;;;4957453;28;46442;-83
2023/12/02 11:06:13;;;;;;;4.60;3.25;;;22.40;23.40;;;;;;4941934;28;45096;-82
2023/12/02 11:08:53;;;;;;;3.10;2.75;;;22.50;23.30;;;;;;4938302;28;45134;-83
2023/12/02 11:11:40;;;;;;;3.33;2.90;;;22.50;23.30;;;;;;4937684;28;45219;-85
2023/12/02 11:14:05;;;;;;;3.67;2.80;;;22.50;23.20;;;;;;4958754;28;46973;-88
2023/12/02 11:16:34;;;;;;;3.27;2.97;;;22.60;23.20;;;;;;4918722;28;45427;-81
2023/12/02 11:19:05;;;;;;;3.28;2.67;;;22.60;23.20;;;;;;4955233;28;44728;-81
2023/12/02 11:21:38;;;;;;;4.20;2.75;;;22.60;23.20;;;;;;4939163;28;45513;-81
2023/12/02 11:24:10;;;;;;;3.13;2.83;;;22.70;23.10;;;;;;4927650;28;46257;-82
2023/12/02 11:26:57;;;;;;;2.88;2.50;;;22.70;23.10;;;;;;4919878;28;45290;-88
2023/12/02 11:29:32;;;;;;;3.00;2.65;;;22.70;23.00;;;;;;4956615;28;45227;-81
2023/12/02 11:32:18;;;;;;;2.95;2.65;;;22.80;23.00;;;;;;4935659;28;45225;-82
2023/12/02 11:35:17;;;;;;;2.97;2.60;;;22.80;23.00;;;;;;4952737;28;45216;-85
2023/12/02 11:37:56;;;;;;;3.28;2.58;;;22.90;23.00;;;;;;4944518;28;44627;-82
2023/12/02 11:40:22;;;;;;;3.08;2.40;;;22.90;23.00;;;;;;4956062;28;45188;-82
2023/12/02 11:43:09;;;;;;;3.37;2.70;;;22.90;22.90;;;;;;4981239;28;45811;-86
2023/12/02 11:45:39;;;;;;;3.60;2.70;;;22.90;22.90;;;;;;4921244;28;47655;-83
2023/12/02 11:48:20;;;;;;;2.90;2.60;;;23.00;22.90;;;;;;4942854;28;45199;-88
2023/12/02 11:51:24;;;;;;;3.80;3.03;;;23.00;22.80;;;;;;4927251;28;45335;-81
2023/12/02 11:54:12;;;;;;;3.70;2.85;;;23.10;22.90;;;;;;4974876;28;45594;-86
2023/12/02 11:56:40;;;;;;;3.38;2.95;;;23.10;22.80;;;;;;4944226;28;46216;-83
2023/12/02 11:59:15;;;;;;;3.20;2.90;;;23.10;22.80;;;;;;4964063;28;45721;-83
2023/12/02 12:01:44;;;;;;;3.55;2.95;;;23.10;22.80;;;;;;4938398;28;45620;-82
2023/12/02 12:04:40;;;;;;;4.60;3.15;;;23.20;22.80;;;;;;4956468;28;44878;-88
2023/12/02 12:07:18;;;;;;;3.38;2.80;;;23.20;22.80;;;;;;4950904;28;47391;-85
2023/12/02 12:09:54;;;;;;;3.17;2.88;;;23.20;22.70;;;;;;4953451;28;45393;-85
2023/12/02 12:12:21;;;;;;;3.25;2.72;;;23.30;22.80;;;;;;4975009;28;45228;-81
2023/12/02 12:14:47;;;;;;;2.63;2.42;;;23.30;22.80;;;;;;4957078;28;45601;-83
2023/12/02 12:17:12;;;;;;;3.03;2.60;;;23.30;22.70;;;;;;4931642;28;46670;-85
2023/12/02 12:19:39;;;;;;;2.80;2.50;;;23.30;22.70;;;;;;4939865;28;44760;-82
2023/12/02 12:22:05;;;;;;;2.90;2.60;;;23.30;22.70;;;;;;4959127;28;44683;-81
2023/12/02 12:24:31;;;;;;;2.72;2.50;;;23.30;22.70;;;;;;4934356;28;44725;-84
2023/12/02 12:26:56;;;;;;;2.40;2.20;;;23.30;23.10;;;;;;4974278;28;45996;-84
2023/12/02 12:29:22;;;;;;;2.60;2.35;;;23.40;22.70;;;;;;4944957;28;44948;-81
2023/12/02 12:31:48;;;;;;;2.67;2.38;;;23.30;22.60;;;;;;4940678;28;45477;-85
2023/12/02 12:34:14;;;;;;;2.77;2.40;;;23.30;22.60;;;;;;4959242;28;44840;-84
2023/12/02 12:36:40;;;;;;;2.60;2.40;;;23.40;22.60;;;;;;4936133;28;46048;-80
2023/12/02 12:39:09;;;;;;;2.67;2.30;;;23.40;22.60;;;;;;4954564;28;46056;-85
2023/12/02 12:41:38;;;;;;;2.50;2.30;;;23.40;22.60;;;;;;4942371;28;45687;-80
2023/12/02 12:44:04;;;;;;;2.13;1.92;;;23.40;22.60;;;;;;4962538;28;45205;-81
2023/12/02 12:46:30;;;;;;;2.87;2.57;;;23.40;22.60;;;;;;4944006;28;46989;-83
2023/12/02 12:48:56;;;;;;;2.30;2.10;;;23.40;22.60;;;;;;4962763;28;45223;-87
2023/12/02 12:51:22;;;;;;;2.30;2.10;;;23.50;22.60;;;;;;4960376;28;44944;-81
2023/12/02 12:54:06;;;;;;;2.50;2.30;;;23.50;22.60;;;;;;4952376;28;45271;-88
2023/12/02 12:56:39;;;;;;;2.28;2.08;;;23.50;22.60;;;;;;4936067;28;46404;-81
2023/12/02 12:59:09;;;;;;;2.30;2.10;;;23.50;22.60;;;;;;4976522;28;44925;-82
2023/12/02 13:01:35;;;;;;;2.35;2.15;;;23.50;22.60;;;;;;4940507;28;45267;-84
2023/12/02 13:04:39;;;;;;;2.20;2.00;;;23.50;22.60;;;;;;4926573;28;45279;-83
2023/12/02 13:07:11;;;;;;;2.42;2.22;;;23.50;22.60;;;;;;4906767;28;45235;-83
2023/12/02 13:10:00;;;;;;;2.30;1.98;;;23.50;22.60;;;;;;4937523;28;45507;-83
2023/12/02 13:12:26;;;;;;;2.00;1.80;;;23.50;22.60;;;;;;4941168;28;45174;-81
2023/12/02 13:14:56;;;;;;;2.17;1.98;;;23.50;22.60;;;;;;4946764;28;44854;-83
2023/12/02 13:17:22;;;;;;;2.10;1.90;;;23.50;22.50;;;;;;4937767;28;45635;-81
2023/12/02 13:19:49;;;;;;;2.17;1.98;;;23.50;22.50;;;;;;4959991;28;45326;-82
2023/12/02 13:22:16;;;;;;;2.00;1.80;;;23.50;22.50;;;;;;4956982;28;45329;-80
2023/12/02 13:25:05;;;;;;;2.20;2.00;;;23.50;22.50;;;;;;4945289;28;45400;-81
2023/12/02 13:27:39;;;;;;;1.85;1.75;;;23.50;22.50;;;;;;4936135;28;47346;-81
2023/12/02 13:30:07;;;;;;;2.10;1.90;;;23.50;22.50;;;;;;4942485;28;45062;-88
2023/12/02 13:32:40;;;;;;;1.95;1.70;;;23.50;22.50;;;;;;4906315;28;45289;-81
2023/12/02 13:35:09;;;;;;;2.20;2.00;;;23.50;22.50;;;;;;4943597;28;44901;-81
2023/12/02 13:37:57;;;;;;;2.10;1.90;;;23.50;22.50;;;;;;4946032;28;46292;-82
2023/12/02 13:40:26;;;;;;;2.08;1.88;;;23.60;22.50;;;;;;4941890;28;46426;-81
2023/12/02 13:42:53;;;;;;;1.80;1.70;;;23.50;22.50;;;;;;4915212;28;45203;-82
2023/12/02 13:45:21;;;;;;;2.10;1.88;;;23.60;22.50;;;;;;4955477;28;45279;-81
2023/12/02 13:48:08;;;;;;;2.03;1.80;;;23.50;22.50;;;;;;4924351;28;46015;-81
2023/12/02 13:50:49;;;;;;;1.88;1.67;;;23.60;22.50;;;;;;4953031;28;45818;-83
2023/12/02 13:53:45;;;;;;;2.00;1.52;;;23.60;22.50;;;;;;4956020;28;45378;-81
2023/12/02 13:56:49;;;;;;;2.10;1.90;;;23.60;22.50;;;;;;4904370;28;46426;-81
2023/12/02 13:59:38;;;;;;;1.73;1.60;;;23.60;22.50;;;;;;4915620;28;47302;-80
2023/12/02 14:02:33;;;;;;;2.10;1.90;;;23.60;22.50;;;;;;4948414;28;45050;-84
2023/12/02 14:05:07;;;;;;;2.03;1.77;;;23.60;22.50;;;;;;4955642;28;44879;-83
2023/12/02 14:07:40;;;;;;;1.87;1.77;;;23.60;22.50;;;;;;4956780;28;45443;-80
2023/12/02 14:10:06;;;;;;;1.85;1.75;;;23.60;22.50;;;;;;4945583;28;45639;-89
2023/12/02 14:12:44;;;;;;;2.17;1.80;;;23.60;22.50;;;;;;4940589;28;45486;-85
2023/12/02 14:15:42;;;;;;;1.63;1.53;;;23.60;22.50;;;;;;4957033;28;45119;-84
2023/12/02 14:18:37;;;;;;;1.70;1.60;;;23.60;22.50;;;;;;4977815;28;45777;-83
2023/12/02 14:21:24;;;;;;;1.80;1.70;;;23.60;22.40;;;;;;4943038;28;46224;-81
2023/12/02 14:24:11;;;;;;;1.80;1.70;;;23.60;22.50;;;;;;4962896;28;45500;-81
2023/12/02 14:26:56;;;;;;;2.13;1.70;;;23.60;22.50;;;;;;4947441;28;45584;-87
2023/12/02 14:29:40;;;;;;;1.95;1.77;;;23.60;22.50;;;;;;4954265;28;45445;-81
2023/12/02 14:32:36;;;;;;;1.80;1.70;;;23.60;22.50;;;;;;4928290;28;45613;-91
2023/12/02 14:35:21;;;;;;;1.67;1.58;;;23.60;22.50;;;;;;4952845;28;45385;-91
2023/12/02 14:38:09;;;;;;;1.60;1.50;;;23.60;22.50;;;;;;4938789;28;45275;-83
2023/12/02 14:40:56;;;;;;;1.80;1.70;;;23.50;22.50;;;;;;4964100;28;45294;-86
2023/12/02 14:43:49;;;;;;;1.80;1.70;;;23.50;22.40;;;;;;4954265;28;46319;-83
2023/12/02 14:46:17;;;;;;;1.83;1.73;;;23.50;22.90;;;;;;4963477;28;45013;-83
2023/12/02 14:48:43;;;;;;;1.55;1.45;;;23.50;22.40;;;;;;4928392;28;45561;-82
2023/12/02 14:51:09;;;;;;;2.00;1.70;;;23.60;22.50;;;;;;4936180;28;46314;-91
2023/12/02 14:53:35;;;;;;;1.83;1.73;;;23.60;22.50;;;;;;4940754;28;45119;-87
2023/12/02 14:56:26;;;;;;;1.75;1.65;;;23.50;22.50;;;;;;4953497;28;45142;-81
2023/12/02 14:58:52;;;;;;;1.90;1.70;;;23.50;22.50;;;;;;4973998;28;45695;-82
2023/12/02 15:01:18;;;;;;;2.10;1.90;;;23.50;22.50;;;;;;4949391;28;45340;-87
2023/12/02 15:03:44;;;;;;;2.13;1.77;;;23.50;22.50;;;;;;4957273;28;46085;-82
2023/12/02 15:06:10;;;;;;;1.70;1.60;;;23.50;22.50;;;;;;4934420;28;45807;-82
2023/12/02 15:08:43;;;;;;;1.80;1.70;;;23.60;22.50;;;;;;4895630;28;45802;-84
2023/12/02 15:11:09;;;;;;;1.63;1.52;;;23.50;22.50;;;;;;4903570;28;45540;-88
2023/12/02 15:13:36;;;;;;;1.80;1.70;;;23.50;22.50;;;;;;4903288;28;45949;-82
2023/12/02 15:16:04;;;;;;;2.00;1.80;;;23.50;22.50;;;;;;4930941;28;46339;-81
2023/12/02 15:18:30;;;;;;;1.60;1.50;;;23.50;22.50;;;;;;4918431;28;44798;-85
2023/12/02 15:21:09;;;;;;;1.65;1.55;;;23.50;22.50;;;;;;4903762;28;45257;-82
2023/12/02 15:23:36;;;;;;;1.90;1.70;;;23.50;22.50;;;;;;4937774;28;45607;-86
2023/12/02 15:26:03;;;;;;;1.80;1.70;;;23.50;22.50;;;;;;4917488;28;45365;-84
2023/12/02 15:28:35;;;;;;;1.73;1.63;;;23.50;22.40;;;;;;4935495;28;45350;-82
2023/12/02 15:31:13;;;;;;;2.00;1.50;;;23.50;22.50;;;;;;4934445;28;45737;-82
2023/12/02 15:33:55;;;;;;;1.77;1.67;;;23.50;22.50;;;;;;4936354;28;47077;-82
2023/12/02 15:36:23;;;;;;;1.65;1.55;;;23.50;22.40;;;;;;4902222;28;45468;-82
2023/12/02 15:38:51;;;;;;;1.60;1.50;;;23.50;22.40;;;;;;4936628;28;44815;-87
2023/12/02 15:41:16;;;;;;;1.70;1.60;;;23.50;22.50;;;;;;4934761;28;45300;-85
2023/12/02 15:43:42;;;;;;;1.67;1.58;;;23.50;22.40;;;;;;4923123;28;46115;-82
2023/12/02 15:46:08;;;;;;;2.50;1.77;;;23.40;22.40;;;;;;4931160;28;45264;-84
2023/12/02 15:48:37;;;;;;;1.70;1.60;;;23.50;22.40;;;;;;4935323;28;45957;-85
2023/12/02 15:51:03;;;;;;;1.60;1.45;;;23.50;22.40;;;;;;4930613;28;45242;-83
2023/12/02 15:53:29;;;;;;;1.77;1.67;;;23.40;22.40;;;;;;4915616;28;46038;-85
2023/12/02 15:55:54;;;;;;;1.53;1.40;;;23.40;22.40;;;;;;4916195;28;45813;-84
2023/12/02 15:58:22;;;;;;;1.50;1.40;;;23.40;22.40;;;;;;4909021;28;45193;-82
2023/12/02 16:00:47;;;;;;;1.65;1.55;;;23.50;22.50;;;;;;4936484;28;45423;-83
2023/12/02 16:03:13;;;;;;;1.65;1.55;;;23.40;22.40;;;;;;4933341;28;45652;-82
2023/12/02 16:05:39;;;;;;;1.60;1.50;;;23.50;22.40;;;;;;4944615;28;45315;-82
2023/12/02 16:08:07;;;;;;;1.60;1.50;;;23.40;22.40;;;;;;4939422;28;45297;-85
2023/12/02 16:10:33;;;;;;;1.48;1.38;;;23.40;22.40;;;;;;4929219;28;45120;-86
2023/12/02 16:12:59;;;;;;;1.70;1.60;;;23.40;22.40;;;;;;4955934;28;46191;-82
2023/12/02 16:15:29;;;;;;;1.52;1.42;;;23.40;22.40;;;;;;4925574;28;45982;-84
2023/12/02 16:17:55;;;;;;;1.70;1.47;;;23.40;22.40;;;;;;4964401;28;45273;-83
2023/12/02 16:20:21;;;;;;;1.57;1.47;;;23.40;22.40;;;;;;4958552;28;44839;-88
2023/12/02 16:22:53;;;;;;;1.40;1.30;;;23.40;22.40;;;;;;4940671;28;46116;-89
2023/12/02 16:25:19;;;;;;;1.58;1.42;;;23.30;22.40;;;;;;4945515;28;45194;-89
2023/12/02 16:27:48;;;;;;;1.98;1.70;;;23.30;22.40;;;;;;4941951;28;45486;-85
2023/12/02 16:30:14;;;;;;;1.52;1.40;;;23.30;22.40;;;;;;4949575;28;45907;-87
2023/12/02 16:32:41;;;;;;;1.80;1.40;;;23.30;22.40;;;;;;4955762;28;45318;-84
2023/12/02 16:35:07;;;;;;;1.65;1.55;;;23.30;22.40;;;;;;4959707;28;45444;-90
2023/12/02 16:37:33;;;;;;;1.60;1.50;;;23.30;22.40;;;;;;4932698;28;45400;-81
2023/12/02 16:39:59;;;;;;;1.55;1.45;;;23.30;22.40;;;;;;4946522;28;45468;-86
2023/12/02 16:42:26;;;;;;;1.73;1.60;;;23.30;22.40;;;;;;4943756;28;47385;-87
2023/12/02 16:44:52;;;;;;;1.60;1.50;;;23.30;22.40;;;;;;4960093;28;44679;-86
2023/12/02 16:47:45;;;;;;;1.60;1.50;;;23.30;22.40;;;;;;4938104;28;45230;-82
2023/12/02 16:50:29;;;;;;;1.60;1.47;;;23.20;22.40;;;;;;4943010;28;44738;-81
2023/12/02 16:53:02;;;;;;;1.60;1.50;;;23.30;22.40;;;;;;4957721;28;45782;-82
2023/12/02 16:55:28;;;;;;;1.88;1.67;;;23.30;22.40;;;;;;4961668;28;46472;-86
2023/12/02 16:57:55;;;;;;;1.90;1.60;;;23.30;22.40;;;;;;4961659;28;45496;-87
2023/12/02 17:00:24;;;;;;;1.83;1.60;;;23.20;22.40;;;;;;4941535;28;44714;-82
2023/12/02 17:02:49;;;;;;;1.73;1.63;;;23.20;22.40;;;;;;4925156;28;45969;-85
2023/12/02 17:05:30;;;;;;;2.43;1.53;;;23.20;22.40;;;;;;4942896;28;45420;-82
2023/12/02 17:08:03;;;;;;;1.80;1.70;;;23.20;22.40;;;;;;4944902;28;45976;-82
2023/12/02 17:10:44;;;;;;;1.77;1.67;;;23.20;22.40;;;;;;4927436;28;45210;-81
2023/12/02 17:13:39;;;;;;;1.80;1.70;;;23.20;22.40;;;;;;4976384;28;45200;-87
2023/12/02 17:16:30;;;;;;;1.63;1.52;;;23.20;22.40;;;;;;4921464;28;44682;-84
2023/12/02 17:19:02;;;;;;;2.00;1.80;;;23.20;22.40;;;;;;4961101;28;45452;-84
2023/12/02 17:21:30;;;;;;;2.05;1.90;;;23.20;22.50;;;;;;4964620;28;45746;-84
2023/12/02 17:23:57;;;;;;;1.83;1.63;;;23.20;22.50;;;;;;4949521;28;46118;-85
2023/12/02 17:26:32;;;;;;;1.95;1.70;;;23.10;22.40;;;;;;4921549;28;44922;-84
2023/12/02 17:28:57;;;;;;;2.40;1.70;;;23.10;22.40;;;;;;4928220;28;45484;-82
2023/12/02 17:31:23;;;;;;;1.67;1.57;;;23.10;22.40;;;;;;4928453;28;45659;-85
2023/12/02 17:33:50;;;;;;;1.60;1.50;;;23.10;22.40;;;;;;4948107;28;45959;-88
2023/12/02 17:36:16;;;;;;;1.70;1.53;;;23.10;22.40;;;;;;4952085;28;45347;-87
2023/12/02 17:38:42;;;;;;;1.70;1.58;;;23.10;22.40;;;;;;4955106;28;45935;-82
2023/12/02 17:41:08;;;;;;;1.60;1.50;;;23.10;22.40;;;;;;4957394;28;45410;-87
2023/12/02 17:43:34;;;;;;;1.53;1.43;;;23.10;22.40;;;;;;4942457;28;45935;-81
2023/12/02 17:45:59;;;;;;;1.63;1.43;;;23.10;22.50;;;;;;4934412;28;45391;-86
2023/12/02 17:48:25;;;;;;;1.50;1.40;;;23.10;22.50;;;;;;4941094;28;45331;-82
2023/12/02 17:50:50;;;;;;;1.57;1.47;;;23.00;22.50;;;;;;4948222;28;45095;-88
2023/12/02 17:53:17;;;;;;;1.73;1.60;;;23.10;22.50;;;;;;4923689;28;47295;-82
2023/12/02 17:55:43;;;;;;;1.60;1.50;;;23.00;22.40;;;;;;4950117;28;45583;-81
2023/12/02 17:58:09;;;;;;;1.60;1.50;;;23.00;22.40;;;;;;4941743;28;45514;-83
2023/12/02 18:00:35;;;;;;;1.88;1.52;;;23.00;22.40;;;;;;4950709;28;45471;-84
2023/12/02 18:03:00;;;;;;;1.70;1.60;;;23.00;22.40;;;;;;4934208;28;45241;-83
2023/12/02 18:05:26;;;;;;;1.93;1.73;;;23.00;22.40;;;;;;4900976;28;45184;-86
2023/12/02 18:07:51;;;;;;;1.67;1.57;;;23.00;22.40;;;;;;4913369;28;45198;-82
2023/12/02 18:10:17;;;;;;;1.70;1.60;;;23.00;22.40;;;;;;4903630;28;45226;-87
2023/12/02 18:12:43;;;;;;;1.60;1.50;;;23.00;22.40;;;;;;4907123;28;46017;-81
2023/12/02 18:15:10;;;;;;;1.50;1.40;;;23.00;22.40;;;;;;4911581;28;45551;-87
2023/12/02 18:17:35;;;;;;;1.60;1.50;;;23.00;22.50;;;;;;4901702;28;46584;-86
2023/12/02 18:20:05;;;;;;;1.50;1.40;;;22.90;22.40;;;;;;4937986;28;45607;-90
2023/12/02 18:22:32;;;;;;;1.63;1.52;;;22.90;22.40;;;;;;4902939;28;46208;-88
2023/12/02 18:24:58;;;;;;;1.60;1.50;;;22.90;22.40;;;;;;4905271;28;45932;-82
2023/12/02 18:27:25;;;;;;;1.60;1.50;;;22.90;22.40;;;;;;4933082;28;45244;-86
2023/12/02 18:29:54;;;;;;;1.52;1.42;;;22.90;22.40;;;;;;4935688;28;45867;-82
2023/12/02 18:32:20;;;;;;;1.83;1.58;;;22.90;22.40;;;;;;4915763;28;46320;-82
2023/12/02 18:34:46;;;;;;;1.75;1.60;;;22.90;22.40;;;;;;4930566;28;45581;-85
2023/12/02 18:37:11;;;;;;;1.48;1.38;;;22.90;22.40;;;;;;4900277;28;45149;-81
2023/12/02 18:39:38;;;;;;;1.50;1.40;;;22.90;22.50;;;;;;4920524;28;45677;-84
2023/12/02 18:42:03;;;;;;;1.70;1.60;;;22.90;22.50;;;;;;4931291;28;47202;-84
2023/12/02 18:44:31;;;;;;;2.90;1.60;;;22.80;22.50;;;;;;4892093;28;46028;-82
2023/12/02 18:46:57;;;;;;;1.70;1.60;;;22.90;22.50;;;;;;4914340;28;45665;-81
2023/12/02 18:49:22;;;;;;;1.75;1.65;;;22.80;22.50;;;;;;4923044;28;45677;-82
2023/12/02 18:51:48;;;;;;;1.85;1.75;;;22.90;22.50;;;;;;4938269;28;45615;-83
2023/12/02 18:54:14;;;;;;;1.42;1.33;;;22.80;22.50;;;;;;4935917;28;45219;-84
2023/12/02 18:56:40;;;;;;;1.80;1.60;;;22.80;22.50;;;;;;4922620;28;45494;-81
2023/12/02 18:59:06;;;;;;;1.58;1.48;;;22.80;22.50;;;;;;4926676;28;45139;-86
2023/12/02 19:01:32;;;;;;;1.80;1.70;;;22.80;22.60;;;;;;4916664;28;47068;-81
2023/12/02 19:03:59;;;;;;;1.60;1.50;;;22.80;22.50;;;;;;4938365;28;45132;-82
2023/12/02 19:06:25;;;;;;;1.50;1.40;;;22.70;22.40;;;;;;4972766;28;45017;-85
2023/12/02 19:08:51;;;;;;;1.83;1.67;;;22.70;22.50;;;;;;4925581;28;45449;-84
2023/12/02 19:11:17;;;;;;;1.70;1.60;;;22.70;22.40;;;;;;4937440;28;46197;-82
2023/12/02 19:13:43;;;;;;;1.75;1.65;;;22.70;22.50;;;;;;4963237;28;45559;-82
2023/12/02 19:16:12;;;;;;;1.90;1.70;;;22.70;22.50;;;;;;4955270;28;46045;-82
2023/12/02 19:18:38;;;;;;;1.80;1.70;;;22.70;22.50;;;;;;4949662;28;45637;-90
2023/12/02 19:21:05;;;;;;;1.80;1.70;;;22.70;22.50;;;;;;4942149;28;45427;-82
2023/12/02 19:23:31;;;;;;;1.58;1.48;;;22.70;22.50;;;;;;4962616;28;45246;-82
2023/12/02 19:25:57;;;;;;;1.63;1.52;;;22.70;22.50;;;;;;4971985;28;46220;-83
2023/12/02 19:28:23;;;;;;;1.75;1.58;;;22.70;22.50;;;;;;4942722;28;45556;-82
2023/12/02 19:30:51;;;;;;;1.60;1.50;;;22.70;22.50;;;;;;4954930;28;45753;-85
2023/12/02 19:33:17;;;;;;;1.60;1.50;;;22.70;22.50;;;;;;4940873;28;45032;-87
2023/12/02 19:35:43;;;;;;;1.60;1.40;;;22.60;22.50;;;;;;4923543;28;45191;-83
2023/12/02 19:38:09;;;;;;;1.50;1.40;;;22.60;22.40;;;;;;4925437;28;45291;-83
2023/12/02 19:40:35;;;;;;;1.67;1.57;;;22.70;22.50;;;;;;4972839;28;45846;-83
2023/12/02 19:43:00;;;;;;;1.40;1.30;;;22.60;22.50;;;;;;4959532;28;44687;-81
2023/12/02 19:45:26;;;;;;;1.60;1.50;;;22.60;22.50;;;;;;4925143;28;45061;-86
2023/12/02 19:47:53;;;;;;;1.60;1.50;;;22.60;22.50;;;;;;4923698;28;45013;-82
2023/12/02 19:50:20;;;;;;;2.35;1.40;;;22.50;22.50;;;;;;4962769;28;45596;-88
2023/12/02 19:52:46;;;;;;;1.90;1.70;;;22.50;22.50;;;;;;4938100;28;44838;-85
2023/12/02 19:55:12;;;;;;;1.50;1.40;;;22.50;22.50;;;;;;4909783;28;45210;-81
2023/12/02 19:57:38;;;;;;;1.90;1.50;;;22.50;22.50;;;;;;4944197;28;45296;-85
2023/12/02 20:00:07;;;;;;;1.50;1.40;;;22.40;22.50;;;;;;4924108;28;46177;-89